Time;durP1;ratioP1;P1;durP2;ratioP2;P2;SDS_P1;SDS_P2;PMS_P1;PMS_P2;Temp;Humidity;BMP_temperature;BMP_pressure;BME280_temperature;BME280_humidity;BME280_pressure;Samples;Min_cycle;Max_cycle;Signal;HPM_P1;HPM_P2
2021/11/01 00:00:29;;;;;;;4.28;0.45;;;9.80;99.90;;;;;;4930778;29;20042;-91
2021/11/01 00:02:55;;;;;;;6.55;1.00;;;9.70;99.90;;;;;;4946612;29;20106;-88
2021/11/01 00:05:22;;;;;;;9.02;0.50;;;9.70;99.90;;;;;;4946563;29;20040;-87
2021/11/01 00:07:48;;;;;;;9.43;0.73;;;9.70;99.90;;;;;;4930646;29;20080;-87
2021/11/01 00:10:14;;;;;;;9.75;0.60;;;9.70;99.90;;;;;;4930970;29;20044;-85
2021/11/01 00:12:40;;;;;;;5.65;0.70;;;9.70;99.90;;;;;;4930550;29;20047;-89
2021/11/01 00:15:07;;;;;;;10.82;0.73;;;9.80;99.90;;;;;;4914852;29;20068;-89
2021/11/01 00:17:32;;;;;;;9.55;0.52;;;9.70;99.90;;;;;;4946106;29;20040;-87
2021/11/01 00:19:58;;;;;;;11.63;0.50;;;9.70;99.90;;;;;;4930531;29;20038;-89
2021/11/01 00:22:24;;;;;;;3.47;0.40;;;9.70;99.90;;;;;;4930487;29;20043;-88
2021/11/01 00:24:50;;;;;;;5.72;0.43;;;9.60;99.90;;;;;;4921845;29;20043;-86
2021/11/01 00:27:16;;;;;;;6.60;0.60;;;9.60;99.90;;;;;;4982668;28;20133;-88
2021/11/01 00:29:43;;;;;;;5.68;0.50;;;9.60;99.90;;;;;;4966223;29;20063;-94
2021/11/01 00:32:09;;;;;;;6.00;0.70;;;9.60;99.90;;;;;;4982233;28;20046;-88
2021/11/01 00:34:35;;;;;;;6.57;0.50;;;9.60;99.90;;;;;;4982771;28;20043;-89
2021/11/01 00:37:01;;;;;;;10.10;0.40;;;9.70;99.90;;;;;;4982317;28;20092;-89
2021/11/01 00:39:27;;;;;;;12.20;0.80;;;9.60;99.90;;;;;;4982616;28;20048;-88
2021/11/01 00:41:52;;;;;;;7.13;0.40;;;9.60;99.90;;;;;;4979670;28;20049;-92
2021/11/01 00:44:18;;;;;;;9.75;0.50;;;9.60;99.90;;;;;;4966339;29;20035;-90
2021/11/01 00:46:44;;;;;;;6.10;0.52;;;9.50;99.90;;;;;;4966169;29;20089;-87
2021/11/01 00:49:09;;;;;;;2.55;0.38;;;9.50;99.90;;;;;;4966239;28;20055;-86
2021/11/01 00:51:38;;;;;;;4.60;0.30;;;9.50;99.90;;;;;;4967531;29;20042;-91
2021/11/01 00:54:04;;;;;;;7.15;0.43;;;9.40;99.90;;;;;;4953559;29;20043;-86
2021/11/01 00:56:30;;;;;;;3.33;0.40;;;9.40;99.90;;;;;;4982208;28;20042;-85
2021/11/01 00:58:55;;;;;;;5.45;0.40;;;9.40;99.90;;;;;;4982253;28;20039;-88
2021/11/01 01:01:21;;;;;;;6.68;0.40;;;9.40;99.90;;;;;;4998377;28;20035;-88
2021/11/01 01:03:49;;;;;;;7.05;0.40;;;9.40;99.90;;;;;;4966149;28;20043;-88
2021/11/01 01:06:16;;;;;;;3.72;0.40;;;9.30;99.90;;;;;;4982104;28;20040;-88
2021/11/01 01:08:42;;;;;;;9.98;0.73;;;9.40;99.90;;;;;;4981982;28;20134;-89
2021/11/01 01:11:08;;;;;;;11.35;0.73;;;9.30;99.90;;;;;;4982300;28;20047;-93
2021/11/01 01:13:36;;;;;;;8.23;0.38;;;9.40;99.90;;;;;;4982009;28;20136;-89
2021/11/01 01:16:26;;;;;;;10.10;0.70;;;9.30;99.90;;;;;;4982212;28;20284;-91
2021/11/01 01:18:53;;;;;;;7.50;0.63;;;9.40;99.90;;;;;;4981572;28;20058;-89
2021/11/01 01:24:04;;;;;;;6.47;0.50;;;9.30;99.90;;;;;;4982129;28;20063;-90
2021/11/01 01:26:30;;;;;;;5.18;0.38;;;9.20;99.90;;;;;;4982186;28;20047;-91
2021/11/01 01:28:56;;;;;;;5.03;0.40;;;9.20;99.90;;;;;;4981953;28;20055;-88
2021/11/01 01:31:22;;;;;;;2.13;0.35;;;9.20;99.90;;;;;;4982202;28;20039;-88
2021/11/01 01:33:48;;;;;;;5.70;0.30;;;9.10;99.90;;;;;;4981935;28;20047;-90
2021/11/01 01:36:14;;;;;;;3.03;0.30;;;9.10;99.90;;;;;;4981924;28;20051;-86
2021/11/01 01:38:40;;;;;;;5.93;0.47;;;9.10;99.90;;;;;;4981946;28;20051;-90
2021/11/01 01:41:18;;;;;;;7.95;0.70;;;9.00;99.90;;;;;;4972909;28;20043;-88
2021/11/01 01:43:46;;;;;;;6.65;0.50;;;9.10;99.90;;;;;;4966818;28;20039;-89
2021/11/01 01:46:12;;;;;;;5.55;0.50;;;9.00;99.90;;;;;;4969029;29;20054;-93
2021/11/01 01:48:38;;;;;;;4.55;0.30;;;9.00;99.90;;;;;;4969264;29;20337;-89
2021/11/01 01:51:05;;;;;;;3.30;0.25;;;9.00;99.90;;;;;;4985176;28;20263;-91
2021/11/01 01:53:31;;;;;;;5.50;0.40;;;9.00;99.90;;;;;;4969274;29;20115;-89
2021/11/01 01:55:58;;;;;;;3.85;0.40;;;9.00;99.90;;;;;;4985066;28;20043;-92
2021/11/01 01:58:25;;;;;;;4.40;0.30;;;8.90;99.90;;;;;;4985144;28;20039;-88
2021/11/01 02:01:09;;;;;;;;;;;8.90;99.90;;;;;;4969577;29;20039;-89
2021/11/01 02:03:40;;;;;;;7.78;0.40;;;8.90;99.90;;;;;;4985096;28;19918;-89
2021/11/01 02:06:13;;;;;;;3.13;0.30;;;8.90;99.90;;;;;;4985055;28;20111;-85
2021/11/01 02:08:59;;;;;;;3.53;0.30;;;8.90;99.90;;;;;;4984950;28;20059;-87
2021/11/01 02:12:05;;;;;;;4.63;0.50;;;8.90;99.90;;;;;;4968775;29;20047;-86
2021/11/01 02:14:56;;;;;;;5.57;0.30;;;8.90;99.90;;;;;;4954916;28;20133;-93
2021/11/01 02:17:26;;;;;;;3.45;0.20;;;8.90;99.90;;;;;;4970747;28;20043;-90
2021/11/01 02:19:55;;;;;;;3.80;0.30;;;8.80;99.90;;;;;;4970860;28;20404;-88
2021/11/01 02:22:51;;;;;;;3.63;0.30;;;8.80;99.90;;;;;;4987384;28;20110;-88
2021/11/01 02:25:30;;;;;;;4.82;0.30;;;8.80;99.90;;;;;;4988603;28;20042;-89
2021/11/01 02:27:56;;;;;;;4.17;0.23;;;8.80;99.90;;;;;;4988772;28;20043;-93
2021/11/01 02:30:22;;;;;;;4.07;0.40;;;8.80;99.90;;;;;;4971468;28;20070;-89
2021/11/01 02:32:50;;;;;;;6.65;0.73;;;8.80;99.90;;;;;;4954714;28;20084;-87
2021/11/01 02:35:16;;;;;;;4.93;0.28;;;8.80;99.90;;;;;;4986913;28;20050;-93
2021/11/01 02:37:42;;;;;;;2.97;0.38;;;8.80;99.90;;;;;;4987035;28;20089;-94
2021/11/01 02:40:09;;;;;;;4.18;0.40;;;8.90;99.90;;;;;;4973056;28;20047;-95
2021/11/01 02:42:36;;;;;;;5.68;0.30;;;8.80;99.90;;;;;;4975164;28;20577;-93
2021/11/01 02:48:46;;;;;;;6.53;0.30;;;8.90;99.90;;;;;;5007031;28;20109;-92
2021/11/01 02:51:13;;;;;;;6.00;0.77;;;8.90;99.90;;;;;;5007605;28;20034;-95
2021/11/01 02:53:41;;;;;;;4.13;0.40;;;8.90;99.90;;;;;;5007680;28;20049;-94
2021/11/01 02:56:08;;;;;;;3.80;0.30;;;8.90;99.90;;;;;;5006843;28;20047;-90
2021/11/01 02:58:34;;;;;;;5.40;0.57;;;8.90;99.90;;;;;;5007467;28;20053;-94
2021/11/01 03:01:00;;;;;;;4.93;0.30;;;8.90;99.90;;;;;;5007366;28;20121;-92
2021/11/01 03:03:25;;;;;;;3.97;0.30;;;8.90;99.90;;;;;;5007970;28;20043;-92
2021/11/01 03:05:51;;;;;;;8.80;0.30;;;8.90;99.90;;;;;;5007161;28;20046;-91
2021/11/01 03:08:17;;;;;;;7.13;0.28;;;8.80;99.90;;;;;;5007157;28;20054;-95
2021/11/01 03:10:46;;;;;;;6.90;0.50;;;8.80;99.90;;;;;;5009701;28;20053;-91
2021/11/01 03:13:12;;;;;;;10.18;0.60;;;8.80;99.90;;;;;;5007298;28;20034;-93
2021/11/01 03:15:38;;;;;;;5.05;0.30;;;8.90;99.90;;;;;;5006939;28;20046;-93
2021/11/01 03:18:07;;;;;;;5.80;0.20;;;8.80;99.90;;;;;;5006736;28;20068;-94
2021/11/01 03:20:38;;;;;;;3.28;0.30;;;8.80;99.90;;;;;;5006951;28;20049;-90
2021/11/01 03:23:08;;;;;;;3.85;0.38;;;8.70;99.90;;;;;;5007065;28;20049;-96
2021/11/01 03:25:39;;;;;;;3.53;0.30;;;8.80;99.90;;;;;;5007395;28;20045;-96
2021/11/01 03:28:12;;;;;;;5.32;0.35;;;8.80;99.90;;;;;;5006885;28;20110;-94
2021/11/01 03:30:39;;;;;;;4.55;0.30;;;8.80;99.90;;;;;;5006541;28;20234;-90
2021/11/01 03:33:05;;;;;;;3.00;0.20;;;8.80;99.90;;;;;;5006832;28;20045;-94
2021/11/01 03:35:33;;;;;;;3.45;0.40;;;8.70;99.90;;;;;;5008094;28;20104;-95
2021/11/01 03:38:03;;;;;;;5.20;0.40;;;8.70;99.90;;;;;;5006889;28;20049;-94
2021/11/01 03:40:34;;;;;;;2.90;0.30;;;8.70;99.90;;;;;;5003183;28;20038;-93
2021/11/01 03:43:03;;;;;;;4.35;0.30;;;8.70;99.90;;;;;;5003391;28;20062;-89
2021/11/01 03:45:30;;;;;;;3.20;0.30;;;8.60;99.90;;;;;;5002739;28;20046;-89
2021/11/01 03:48:02;;;;;;;6.10;0.60;;;8.60;99.90;;;;;;5002660;28;20043;-94
2021/11/01 03:50:58;;;;;;;5.65;0.30;;;8.60;99.90;;;;;;5003341;28;20087;-95
2021/11/01 03:53:14;;;;;;;3.83;0.20;;;8.70;99.90;;;;;;5005982;28;20180;-92
2021/11/01 03:55:41;;;;;;;6.85;0.75;;;8.60;99.90;;;;;;5005727;28;20042;-92
2021/11/01 03:58:06;;;;;;;4.03;0.82;;;8.60;99.90;;;;;;5006415;28;20038;-94
2021/11/01 04:00:35;;;;;;;4.65;0.32;;;8.60;99.90;;;;;;5005923;28;20509;-91
2021/11/01 04:03:02;;;;;;;4.03;0.20;;;8.60;99.90;;;;;;5005955;28;20556;-95
2021/11/01 04:05:28;;;;;;;7.65;0.40;;;8.60;99.90;;;;;;5005693;28;20121;-90
2021/11/01 04:07:55;;;;;;;6.70;0.40;;;8.70;99.90;;;;;;5004734;28;20039;-89
2021/11/01 04:10:21;;;;;;;6.28;0.30;;;8.70;99.90;;;;;;5007231;28;20046;-88
2021/11/01 04:12:48;;;;;;;4.45;0.40;;;8.60;99.90;;;;;;5005832;28;20085;-89
2021/11/01 04:15:20;;;;;;;4.00;0.30;;;8.60;99.90;;;;;;5006638;28;20483;-92
2021/11/01 04:17:48;;;;;;;5.88;0.40;;;8.60;99.90;;;;;;5005728;28;20038;-94
2021/11/01 04:22:58;;;;;;;7.53;0.30;;;8.60;99.90;;;;;;5005459;28;20353;-93
2021/11/01 04:25:25;;;;;;;2.22;0.20;;;8.60;99.90;;;;;;5005534;28;20042;-95
2021/11/01 04:27:50;;;;;;;3.03;0.40;;;8.50;99.90;;;;;;5005766;28;20039;-93
2021/11/01 04:30:17;;;;;;;5.15;0.30;;;8.60;99.90;;;;;;5005610;28;20042;-94
2021/11/01 04:32:44;;;;;;;2.72;0.30;;;8.60;99.90;;;;;;5005780;28;20034;-92
2021/11/01 04:37:42;;;;;;;;;;;8.60;99.90;;;;;;5006987;28;20034;-94
2021/11/01 04:40:29;;;;;;;5.38;0.50;;;8.50;99.90;;;;;;5005141;28;19916;-93
2021/11/01 04:44:02;;;;;;;5.13;0.40;;;8.60;99.90;;;;;;5021973;28;20137;-94
2021/11/01 04:53:57;;;;;;;6.00;0.40;;;8.50;99.90;;;;;;5009454;28;20060;-93
2021/11/01 04:56:26;;;;;;;7.78;0.40;;;8.50;99.90;;;;;;5005500;28;20062;-94
2021/11/01 04:58:56;;;;;;;7.93;0.40;;;8.50;99.90;;;;;;5005656;28;20042;-93
2021/11/01 05:01:57;;;;;;;4.57;0.35;;;8.50;99.90;;;;;;5005126;28;20152;-91
2021/11/01 05:04:20;;;;;;;5.53;0.35;;;8.60;99.90;;;;;;5004274;28;20053;-93
2021/11/01 05:06:59;;;;;;;5.63;0.30;;;8.50;99.90;;;;;;5005363;28;20479;-90
2021/11/01 05:09:47;;;;;;;3.55;0.70;;;8.50;99.90;;;;;;5005091;28;20080;-87
2021/11/01 05:19:45;;;;;;;5.55;0.35;;;8.60;99.90;;;;;;5008314;28;20049;-88
2021/11/01 05:22:21;;;;;;;4.40;0.30;;;8.60;99.90;;;;;;5009160;28;20089;-95
2021/11/01 05:25:13;;;;;;;3.47;0.22;;;8.50;99.90;;;;;;5009190;28;20049;-91
2021/11/01 05:27:45;;;;;;;6.70;0.60;;;8.50;99.90;;;;;;5008333;28;20039;-91
2021/11/01 05:30:17;;;;;;;2.47;0.38;;;8.50;99.90;;;;;;5008794;28;20051;-93
2021/11/01 05:32:54;;;;;;;4.90;0.40;;;8.50;99.90;;;;;;5009112;28;20482;-94
2021/11/01 05:35:20;;;;;;;3.83;0.30;;;8.50;99.90;;;;;;5008963;28;20049;-91
2021/11/01 05:37:45;;;;;;;5.57;0.40;;;8.50;99.90;;;;;;4992245;28;20417;-94
2021/11/01 05:40:11;;;;;;;4.10;0.30;;;8.50;99.90;;;;;;5008553;28;20046;-94
2021/11/01 05:42:37;;;;;;;3.10;0.30;;;8.50;99.90;;;;;;5024798;28;20105;-84
2021/11/01 05:45:03;;;;;;;4.68;0.40;;;8.50;99.90;;;;;;5024667;28;20041;-87
2021/11/01 05:47:28;;;;;;;8.23;0.82;;;8.60;99.90;;;;;;5024113;28;20125;-88
2021/11/01 05:49:54;;;;;;;4.78;0.30;;;8.50;99.90;;;;;;5007085;28;20201;-87
2021/11/01 05:52:28;;;;;;;7.45;0.25;;;8.50;99.90;;;;;;5007791;28;20049;-89
2021/11/01 05:54:57;;;;;;;8.05;0.40;;;8.50;99.90;;;;;;4991998;28;20052;-89
2021/11/01 05:57:41;;;;;;;5.78;0.30;;;8.40;99.90;;;;;;5007560;28;20046;-90
2021/11/01 06:03:08;;;;;;;6.87;0.37;;;8.40;99.90;;;;;;4988988;28;20054;-88
2021/11/01 06:08:29;;;;;;;3.25;0.30;;;8.40;99.90;;;;;;4997996;28;20119;-90
2021/11/01 06:13:40;;;;;;;4.53;0.30;;;8.40;99.90;;;;;;5007496;28;20076;-85
2021/11/01 06:16:06;;;;;;;4.28;0.45;;;8.40;99.90;;;;;;5007301;28;20043;-85
2021/11/01 06:18:38;;;;;;;4.40;0.30;;;8.40;99.90;;;;;;5008231;28;20038;-85
2021/11/01 06:21:15;;;;;;;6.60;0.30;;;8.40;99.90;;;;;;5007647;28;20039;-86
2021/11/01 06:23:53;;;;;;;4.15;0.40;;;8.40;99.90;;;;;;5007267;28;20053;-84
2021/11/01 06:26:19;;;;;;;4.75;0.30;;;8.40;99.90;;;;;;5007280;28;20038;-85
2021/11/01 06:28:52;;;;;;;5.40;0.40;;;8.40;99.90;;;;;;5007122;28;20081;-85
2021/11/01 06:31:23;;;;;;;8.63;0.40;;;8.50;99.90;;;;;;5006243;28;20046;-86
2021/11/01 06:39:18;;;;;;;5.03;0.40;;;8.50;99.90;;;;;;5007260;28;20073;-87
2021/11/01 06:57:31;;;;;;;7.07;1.15;;;8.60;99.90;;;;;;5009125;28;20038;-84
2021/11/01 07:22:39;;;;;;;11.50;1.02;;;8.80;99.90;;;;;;5014626;28;20061;-85
2021/11/01 07:39:03;;;;;;;8.02;0.70;;;8.90;99.90;;;;;;5024756;28;20475;-85
2021/11/01 08:22:45;;;;;;;4.97;0.38;;;9.90;99.90;;;;;;5007417;28;20549;-83
2021/11/01 08:34:47;;;;;;;6.97;0.32;;;10.00;99.90;;;;;;5007197;28;20046;-83
2021/11/01 08:44:36;;;;;;;7.05;0.60;;;10.40;99.90;;;;;;5012180;28;20431;-82
2021/11/01 09:18:44;;;;;;;6.22;0.40;;;10.90;99.90;;;;;;5025427;28;20034;-91
2021/11/01 09:26:48;;;;;;;6.38;0.30;;;11.20;99.90;;;;;;5011197;28;20104;-95
2021/11/01 09:43:06;;;;;;;4.22;0.70;;;11.50;99.90;;;;;;5011820;28;20109;-87
2021/11/01 09:45:35;;;;;;;3.80;0.47;;;11.50;99.90;;;;;;5027022;28;20125;-92
2021/11/01 09:48:02;;;;;;;4.97;0.95;;;11.60;99.90;;;;;;5035266;28;20037;-96
2021/11/01 09:50:28;;;;;;;6.43;0.30;;;11.60;99.90;;;;;;5017537;28;20046;-91
2021/11/01 09:52:57;;;;;;;5.63;0.22;;;11.50;99.90;;;;;;5020469;28;20162;-94
2021/11/01 10:00:49;;;;;;;4.90;0.47;;;11.50;99.90;;;;;;5020985;28;20115;-89
2021/11/01 10:03:15;;;;;;;5.65;0.22;;;11.70;99.90;;;;;;5034078;28;20042;-92
2021/11/01 10:05:58;;;;;;;5.30;0.38;;;11.90;99.90;;;;;;5031096;28;20050;-84
2021/11/01 10:08:25;;;;;;;3.20;0.28;;;11.70;99.90;;;;;;5046621;28;20046;-89
2021/11/01 10:10:53;;;;;;;6.55;0.32;;;11.70;99.90;;;;;;5047495;28;20045;-92
2021/11/01 10:13:20;;;;;;;3.13;0.30;;;11.70;99.90;;;;;;5047505;28;20042;-91
2021/11/01 10:18:44;;;;;;;3.60;0.20;;;12.20;99.90;;;;;;5023801;28;20041;-87
2021/11/01 10:21:09;;;;;;;5.45;0.30;;;12.30;99.90;;;;;;5045474;28;20096;-90
2021/11/01 10:23:35;;;;;;;4.30;0.28;;;12.20;99.90;;;;;;5013755;28;20045;-91
2021/11/01 10:26:16;;;;;;;1.58;0.20;;;12.30;99.90;;;;;;5027974;28;20034;-85
2021/11/01 10:28:53;;;;;;;5.10;0.25;;;12.10;99.90;;;;;;4994892;28;20042;-85
2021/11/01 10:31:24;;;;;;;3.65;0.30;;;12.20;99.90;;;;;;4995972;28;20034;-85
2021/11/01 10:34:02;;;;;;;4.28;0.30;;;12.20;99.90;;;;;;5029631;28;20042;-86
2021/11/01 10:36:30;;;;;;;3.83;0.20;;;12.10;99.90;;;;;;4995817;28;20034;-87
2021/11/01 10:38:59;;;;;;;4.03;0.30;;;12.20;99.90;;;;;;5004284;28;20046;-94
2021/11/01 10:41:34;;;;;;;5.97;0.30;;;12.20;99.90;;;;;;5028331;28;20130;-86
2021/11/01 10:44:12;;;;;;;1.85;0.20;;;12.10;99.90;;;;;;4995833;28;20053;-88
2021/11/01 11:11:39;;;;;;;3.38;0.22;;;12.30;99.90;;;;;;5024532;28;20065;-90
2021/11/01 11:17:08;;;;;;;3.00;0.20;;;12.70;99.90;;;;;;5022315;28;20046;-82
2021/11/01 11:22:32;;;;;;;;;;;12.90;99.90;;;;;;5024167;28;20234;-88
2021/11/01 11:28:28;;;;;;;7.93;1.25;;;12.50;99.90;;;;;;4979368;28;20478;-88
2021/11/01 11:31:32;;;;;;;2.63;0.28;;;12.60;99.90;;;;;;5006524;28;20557;-83
2021/11/01 11:50:40;;;;;;;1.48;0.13;;;12.70;99.90;;;;;;5044801;28;20072;-88
2021/11/01 11:53:24;;;;;;;1.02;0.10;;;12.70;99.90;;;;;;5028555;28;20096;-92
2021/11/01 11:56:25;;;;;;;2.65;0.20;;;12.70;99.90;;;;;;5028472;28;20043;-91
2021/11/01 11:58:52;;;;;;;1.42;0.10;;;12.70;99.90;;;;;;5004864;28;20355;-87
2021/11/01 12:01:53;;;;;;;4.28;0.20;;;12.90;99.90;;;;;;5028158;28;20045;-89
2021/11/01 12:04:33;;;;;;;2.58;0.20;;;13.10;99.90;;;;;;5027980;28;20179;-85
2021/11/01 12:07:00;;;;;;;2.80;0.30;;;13.10;99.90;;;;;;5028225;28;20033;-83
2021/11/01 12:09:37;;;;;;;4.05;0.28;;;12.90;99.90;;;;;;5028244;28;20046;-84
2021/11/01 12:17:11;;;;;;;4.07;0.20;;;12.90;99.90;;;;;;5045374;28;20405;-85
2021/11/01 12:19:38;;;;;;;3.17;0.20;;;12.80;99.90;;;;;;5027608;28;20045;-86
2021/11/01 12:22:09;;;;;;;3.10;0.10;;;12.70;99.90;;;;;;5027842;28;20037;-84
2021/11/01 12:24:46;;;;;;;5.22;0.20;;;12.50;99.90;;;;;;5027981;28;20048;-88
2021/11/01 12:27:12;;;;;;;1.95;0.20;;;12.80;99.90;;;;;;5027433;28;20140;-86
2021/11/01 12:29:38;;;;;;;3.55;0.20;;;12.70;99.90;;;;;;5026456;28;20049;-88
2021/11/01 12:32:13;;;;;;;3.83;0.20;;;12.60;99.90;;;;;;5027578;28;20041;-85
2021/11/01 12:34:57;;;;;;;1.98;0.20;;;12.60;99.90;;;;;;5027871;28;20037;-93
2021/11/01 12:37:29;;;;;;;3.53;0.20;;;12.50;99.90;;;;;;5027568;28;20050;-84
2021/11/01 12:40:18;;;;;;;4.35;0.20;;;12.50;99.90;;;;;;5027651;28;20101;-90
2021/11/01 12:42:55;;;;;;;3.28;0.20;;;12.50;99.90;;;;;;5045229;28;20528;-89
2021/11/01 12:49:18;;;;;;;1.10;0.20;;;13.10;99.90;;;;;;4986931;28;20070;-86
2021/11/01 12:57:31;;;;;;;0.85;0.10;;;13.40;99.90;;;;;;4992912;28;20053;-86
2021/11/01 12:59:59;;;;;;;3.97;0.10;;;13.30;99.90;;;;;;5005866;28;20068;-86
2021/11/01 13:02:30;;;;;;;3.20;0.20;;;13.30;99.90;;;;;;5006110;28;20038;-84
2021/11/01 13:04:58;;;;;;;2.60;0.30;;;13.20;99.90;;;;;;5006106;28;20042;-83
2021/11/01 13:19:20;;;;;;;4.40;0.20;;;13.00;99.90;;;;;;5004168;28;20049;-88
2021/11/01 13:21:59;;;;;;;4.80;0.52;;;13.00;99.90;;;;;;5007362;28;20086;-89
2021/11/01 13:24:46;;;;;;;3.42;0.20;;;13.20;99.90;;;;;;4993532;28;20473;-84
2021/11/01 13:35:47;;;;;;;3.05;0.30;;;13.10;99.90;;;;;;5059981;28;20095;-84
2021/11/01 13:38:24;;;;;;;4.90;0.20;;;13.20;99.90;;;;;;5027029;28;20041;-87
2021/11/01 13:40:50;;;;;;;0.95;0.20;;;13.10;99.90;;;;;;5046415;28;20048;-87
2021/11/01 13:43:26;;;;;;;1.65;0.20;;;13.00;99.90;;;;;;5030366;28;20041;-90
2021/11/01 13:45:52;;;;;;;1.85;0.15;;;13.00;99.90;;;;;;5030073;28;20056;-88
2021/11/01 13:48:30;;;;;;;2.45;0.20;;;13.00;99.90;;;;;;5030013;28;20045;-83
2021/11/01 13:51:07;;;;;;;2.40;0.10;;;13.00;99.90;;;;;;5030681;28;20087;-86
2021/11/01 13:53:40;;;;;;;1.80;0.10;;;12.80;99.90;;;;;;5030059;28;20401;-85
2021/11/01 13:56:17;;;;;;;1.92;0.20;;;12.90;99.90;;;;;;5029939;28;20060;-86
2021/11/01 13:59:05;;;;;;;6.25;0.20;;;13.00;99.90;;;;;;5013734;28;20042;-86
2021/11/01 14:01:43;;;;;;;1.48;0.15;;;13.00;99.90;;;;;;5030381;28;20033;-89
2021/11/01 14:15:13;;;;;;;3.90;0.20;;;12.90;99.90;;;;;;5032202;28;20041;-83
2021/11/01 14:27:02;;;;;;;1.92;0.10;;;12.60;99.90;;;;;;5029702;28;20071;-84
2021/11/01 14:32:05;;;;;;;6.50;0.40;;;12.40;99.90;;;;;;5046399;28;20042;-88
2021/11/01 14:34:49;;;;;;;5.50;0.40;;;12.50;99.90;;;;;;5029275;28;20047;-90
2021/11/01 15:02:54;;;;;;;3.20;0.25;;;12.30;99.90;;;;;;5045306;28;20397;-84
2021/11/01 15:08:16;;;;;;;2.17;0.20;;;12.40;99.90;;;;;;5045470;28;20160;-84
2021/11/01 15:16:24;;;;;;;3.95;0.20;;;12.20;99.90;;;;;;5036967;28;20048;-85
2021/11/01 15:18:59;;;;;;;1.38;0.10;;;12.10;99.90;;;;;;5045047;28;20540;-84
2021/11/01 15:37:21;;;;;;;2.45;0.30;;;11.60;99.90;;;;;;5044513;28;20048;-88
2021/11/01 16:18:37;;;;;;;2.00;0.10;;;10.50;99.90;;;;;;4984800;28;20048;-83
2021/11/01 16:21:03;;;;;;;1.52;0.10;;;10.50;99.90;;;;;;4968500;28;20078;-83
2021/11/01 16:25:58;;;;;;;1.63;0.10;;;10.40;99.90;;;;;;5003852;28;20038;-83
2021/11/01 16:28:25;;;;;;;2.58;0.10;;;10.40;99.90;;;;;;5008290;28;20037;-83
2021/11/01 16:31:34;;;;;;;3.10;0.17;;;10.40;99.90;;;;;;5008332;28;20037;-83
2021/11/01 16:33:48;;;;;;;1.73;0.10;;;10.30;99.90;;;;;;5019287;28;20429;-83
2021/11/01 16:36:28;;;;;;;1.42;0.13;;;10.40;99.90;;;;;;5008307;28;20080;-82
2021/11/01 16:38:56;;;;;;;1.42;0.10;;;10.30;99.90;;;;;;5036703;28;20066;-84
2021/11/01 16:41:23;;;;;;;1.85;0.13;;;10.30;99.90;;;;;;5020390;28;20053;-83
2021/11/01 16:43:49;;;;;;;1.60;0.10;;;10.40;99.90;;;;;;5044422;28;20053;-83
2021/11/01 16:46:15;;;;;;;1.73;0.10;;;10.40;99.90;;;;;;5027157;28;20038;-82
2021/11/01 16:48:45;;;;;;;2.08;0.10;;;10.40;99.90;;;;;;5027644;28;20041;-82
2021/11/01 16:51:12;;;;;;;3.97;0.20;;;10.30;99.90;;;;;;5044199;28;20112;-82
2021/11/01 16:53:44;;;;;;;1.17;0.10;;;10.40;99.90;;;;;;5027571;28;20041;-82
2021/11/01 16:56:34;;;;;;;1.48;0.10;;;10.30;99.90;;;;;;5027269;28;20068;-82
2021/11/01 16:59:14;;;;;;;4.65;0.20;;;10.20;99.90;;;;;;5043878;28;20042;-82
2021/11/01 17:01:48;;;;;;;3.97;0.10;;;10.20;99.90;;;;;;5027671;28;20034;-83
2021/11/01 17:04:17;;;;;;;2.30;0.17;;;10.20;99.90;;;;;;5027660;28;20049;-83
2021/11/01 17:07:04;;;;;;;1.38;0.10;;;10.20;99.90;;;;;;5043724;28;20101;-82
2021/11/01 17:23:42;;;;;;;3.42;0.10;;;10.50;99.90;;;;;;5047624;28;20100;-82
2021/11/01 17:29:05;;;;;;;1.48;0.10;;;10.50;99.90;;;;;;5048879;28;20069;-82
2021/11/01 18:43:28;;;;;;;2.20;0.70;;;9.60;99.90;;;;;;5044853;28;20041;-81
2021/11/01 18:51:37;;;;;;;1.88;0.38;;;9.40;99.90;;;;;;5024327;28;20145;-82
2021/11/01 18:54:24;;;;;;;1.13;0.40;;;9.40;99.90;;;;;;5017698;28;20045;-82
2021/11/01 18:56:54;;;;;;;2.25;0.30;;;9.30;99.90;;;;;;5016459;28;20042;-82
2021/11/01 18:59:22;;;;;;;0.90;0.30;;;9.30;99.90;;;;;;5009685;28;20073;-84
2021/11/01 19:01:51;;;;;;;2.15;0.30;;;9.20;99.90;;;;;;4987529;28;20659;-81
2021/11/01 19:04:41;;;;;;;0.90;0.25;;;9.20;99.90;;;;;;5004756;28;20433;-82
2021/11/01 19:07:15;;;;;;;0.75;0.20;;;9.20;99.90;;;;;;5008726;28;20044;-82
2021/11/01 19:10:00;;;;;;;1.10;0.20;;;9.20;99.90;;;;;;5002757;28;20080;-82
2021/11/01 19:13:08;;;;;;;0.40;0.10;;;9.20;99.90;;;;;;5005467;28;20053;-86
2021/11/01 20:03:14;;;;;;;0.60;0.30;;;8.40;99.90;;;;;;5006115;28;20034;-85
2021/11/01 20:05:49;;;;;;;1.58;0.30;;;8.30;99.90;;;;;;4987195;28;20102;-86
2021/11/01 20:08:30;;;;;;;1.13;0.30;;;8.30;99.90;;;;;;4980013;28;20474;-83
2021/11/01 21:24:31;;;;;;;2.83;0.30;;;8.20;99.90;;;;;;5005329;28;20129;-83
2021/11/01 21:26:09;;;;;;;0.93;0.10;;;8.50;99.90;;;;;;5003158;28;20073;-82
2021/11/01 21:28:35;;;;;;;1.23;0.10;;;8.50;99.90;;;;;;4971531;28;20197;-82
2021/11/01 21:31:02;;;;;;;2.28;0.20;;;8.60;99.90;;;;;;5003540;28;20515;-82
2021/11/01 21:33:32;;;;;;;2.75;0.17;;;8.60;99.90;;;;;;5005559;28;20035;-82
2021/11/01 21:36:07;;;;;;;1.08;0.20;;;8.60;99.90;;;;;;4986873;28;20048;-82
2021/11/01 21:38:32;;;;;;;1.10;0.10;;;8.50;99.90;;;;;;5001927;28;20077;-83
2021/11/01 21:40:58;;;;;;;0.98;0.10;;;8.40;99.90;;;;;;5003631;28;20034;-82
2021/11/01 21:43:24;;;;;;;1.13;0.10;;;8.40;99.90;;;;;;5003492;28;20031;-82
2021/11/01 21:45:50;;;;;;;0.50;0.10;;;8.30;99.90;;;;;;5002273;28;20898;-81
2021/11/01 21:48:16;;;;;;;0.75;0.10;;;8.30;99.90;;;;;;5001292;28;20054;-82
2021/11/01 21:50:45;;;;;;;1.52;0.15;;;8.30;99.90;;;;;;5001937;28;20054;-81
2021/11/01 21:53:11;;;;;;;1.27;0.10;;;8.30;99.90;;;;;;5006148;28;20066;-81
2021/11/01 21:55:36;;;;;;;1.75;0.20;;;8.30;99.90;;;;;;4984732;28;20046;-82
2021/11/01 21:58:55;;;;;;;0.65;0.10;;;8.30;99.90;;;;;;5003480;28;20498;-82
2021/11/01 22:17:51;;;;;;;;;;;8.20;99.90;;;;;;5007798;28;20478;-82
2021/11/01 22:20:49;;;;;;;1.85;0.20;;;8.10;99.90;;;;;;5007410;28;19916;-84
2021/11/01 22:39:32;;;;;;;1.45;0.40;;;8.00;99.90;;;;;;5008709;28;20081;-87
2021/11/01 22:42:14;;;;;;;1.98;0.30;;;8.00;99.90;;;;;;4994076;28;20034;-82
2021/11/01 22:44:49;;;;;;;3.05;0.40;;;7.90;99.90;;;;;;5027060;28;20042;-86
2021/11/01 22:55:44;;;;;;;2.33;0.60;;;7.80;99.90;;;;;;5006019;28;20030;-83
2021/11/01 22:58:12;;;;;;;1.50;0.70;;;7.80;99.90;;;;;;5005371;28;20026;-84
2021/11/01 23:00:50;;;;;;;4.78;0.70;;;7.70;99.90;;;;;;5003569;28;20474;-81
2021/11/01 23:06:18;;;;;;;3.30;0.88;;;7.60;99.90;;;;;;5007501;28;20035;-82
2021/11/01 23:33:24;;;;;;;2.53;0.70;;;7.30;99.90;;;;;;5005528;28;20042;-83
2021/11/01 23:35:50;;;;;;;3.33;0.60;;;7.30;99.90;;;;;;5002566;28;20061;-82
2021/11/01 23:38:18;;;;;;;3.20;0.75;;;7.20;99.90;;;;;;5002795;28;20042;-83
2021/11/01 23:40:45;;;;;;;3.00;0.77;;;7.20;99.90;;;;;;4987865;28;20551;-82
2021/11/01 23:43:13;;;;;;;2.95;1.02;;;7.20;99.90;;;;;;5002612;28;20038;-82
2021/11/01 23:45:46;;;;;;;2.47;1.02;;;7.10;99.90;;;;;;5005015;28;20041;-83
2021/11/01 23:48:14;;;;;;;1.58;0.80;;;7.10;99.90;;;;;;4988933;28;20050;-84
2021/11/01 23:50:41;;;;;;;2.53;0.70;;;7.10;99.90;;;;;;5003066;28;20128;-84
2021/11/01 23:53:11;;;;;;;1.85;0.60;;;7.10;99.90;;;;;;5005102;28;20042;-82
2021/11/01 23:55:37;;;;;;;5.28;0.55;;;7.00;99.90;;;;;;4999703;28;20034;-84
2021/11/01 23:58:04;;;;;;;2.22;0.60;;;7.00;99.90;;;;;;5003623;28;20474;-82
